createdAt,value
2022-12-04T01:02:00.965Z,2.00
2022-12-04T01:04:33.435Z,1.80
2022-12-04T01:07:06.695Z,1.70
2022-12-04T01:09:38.784Z,1.70
2022-12-04T01:12:10.494Z,1.70
2022-12-04T01:14:42.341Z,1.60
2022-12-04T01:17:15.568Z,1.60
2022-12-04T01:19:46.876Z,1.50
2022-12-04T01:22:18.810Z,1.50
2022-12-04T01:24:50.288Z,1.50
2022-12-04T01:27:21.406Z,1.50
2022-12-04T01:29:53.001Z,1.40
2022-12-04T01:32:32.283Z,1.40
2022-12-04T01:35:03.697Z,1.40
2022-12-04T01:37:36.309Z,1.30
2022-12-04T01:40:11.382Z,1.30
2022-12-04T01:42:43.194Z,1.20
2022-12-04T01:45:40.573Z,1.20
2022-12-04T01:48:21.930Z,1.10
2022-12-04T01:50:56.782Z,1.10
2022-12-04T01:53:28.215Z,1.10
2022-12-04T01:56:00.646Z,1.10
2022-12-04T01:58:35.246Z,1.10
2022-12-04T02:01:10.207Z,1.10
2022-12-04T02:03:44.476Z,1.10
2022-12-04T02:06:17.368Z,1.10
2022-12-04T02:08:49.429Z,1.10
2022-12-04T02:11:31.454Z,1.10
2022-12-04T02:14:15.322Z,1.10
2022-12-04T02:16:54.860Z,1.20
2022-12-04T02:19:52.286Z,1.20
2022-12-04T02:22:38.925Z,1.10
2022-12-04T02:25:24.403Z,1.10
2022-12-04T02:28:08.673Z,1.10
2022-12-04T02:30:43.447Z,1.10
2022-12-04T02:33:23.952Z,1.00
2022-12-04T02:36:00.278Z,1.00
2022-12-04T02:38:39.957Z,1.00
2022-12-04T02:41:15.554Z,0.90
2022-12-04T02:43:55.855Z,0.90
2022-12-04T02:46:31.416Z,0.90
2022-12-04T02:49:07.990Z,0.80
2022-12-04T02:51:43.662Z,0.80
2022-12-04T02:54:26.432Z,0.80
2022-12-04T02:57:00.160Z,0.70
2022-12-04T02:59:39.910Z,0.70
2022-12-04T03:02:17.359Z,0.60
2022-12-04T03:04:53.071Z,0.60
2022-12-04T03:07:31.051Z,0.60
2022-12-04T03:10:07.086Z,0.50
2022-12-04T03:12:46.862Z,0.50
2022-12-04T03:15:29.702Z,0.40
2022-12-04T03:18:05.658Z,0.40
2022-12-04T03:20:41.315Z,0.30
2022-12-04T03:23:18.898Z,0.30
2022-12-04T03:25:58.958Z,0.30
2022-12-04T03:28:37.218Z,0.20
2022-12-04T03:31:13.370Z,0.10
2022-12-04T03:33:48.368Z,0.20
2022-12-04T03:36:25.791Z,0.20
2022-12-04T03:39:03.645Z,0.10
2022-12-04T03:41:50.075Z,0.20
2022-12-04T03:44:27.038Z,0.20
2022-12-04T03:47:09.822Z,0.10
2022-12-04T03:49:47.482Z,0.10
2022-12-04T03:52:25.787Z,0.00
2022-12-04T03:55:09.133Z,0.00
2022-12-04T03:57:46.448Z,0.00
2022-12-04T04:00:21.615Z,0.00
2022-12-04T04:02:59.824Z,0.00
2022-12-04T04:05:32.774Z,-0.10
2022-12-04T04:08:20.967Z,-0.10
2022-12-04T04:10:56.926Z,-0.10
2022-12-04T04:13:52.418Z,-0.10
2022-12-04T04:20:00.317Z,-0.10
2022-12-04T04:22:55.830Z,-0.10
2022-12-04T04:25:29.957Z,-0.20
2022-12-04T04:28:03.883Z,-0.20
2022-12-04T04:30:39.876Z,-0.20
2022-12-04T04:33:18.969Z,-0.20
2022-12-04T04:36:01.941Z,-0.30
2022-12-04T04:38:44.112Z,-0.30
2022-12-04T04:41:23.164Z,-0.30
2022-12-04T04:44:03.562Z,-0.30
2022-12-04T04:46:38.918Z,-0.30
2022-12-04T04:49:17.205Z,-0.30
2022-12-04T04:51:52.202Z,-0.30
2022-12-04T04:54:26.051Z,-0.30
2022-12-04T04:57:04.264Z,-0.30
2022-12-04T04:59:38.095Z,-0.30
2022-12-04T05:02:10.112Z,-0.30
2022-12-04T05:04:43.154Z,-0.30
2022-12-04T05:07:17.993Z,-0.30
2022-12-04T05:09:52.264Z,-0.30
2022-12-04T05:12:24.364Z,-0.30
2022-12-04T05:14:57.194Z,-0.30
2022-12-04T05:17:29.541Z,-0.30
2022-12-04T05:20:00.221Z,-0.30
2022-12-04T05:22:35.383Z,-0.30
2022-12-04T05:25:08.454Z,-0.30
2022-12-04T05:27:39.693Z,-0.30
2022-12-04T05:30:15.481Z,-0.30
2022-12-04T05:32:47.694Z,-0.30
2022-12-04T05:35:20.321Z,-0.30
2022-12-04T05:37:55.225Z,-0.30
2022-12-04T05:40:27.318Z,-0.30
2022-12-04T05:43:01.246Z,-0.30
2022-12-04T05:45:37.126Z,-0.30
2022-12-04T05:48:13.190Z,-0.20
2022-12-04T05:50:45.815Z,-0.30
2022-12-04T05:53:20.580Z,-0.30
2022-12-04T05:56:00.775Z,-0.20
2022-12-04T05:58:32.419Z,-0.30
2022-12-04T06:01:05.382Z,-0.30
2022-12-04T06:03:37.406Z,-0.30
2022-12-04T06:06:21.007Z,-0.30
2022-12-04T06:09:03.347Z,-0.30
2022-12-04T06:14:23.678Z,-0.40
2022-12-04T06:16:55.958Z,-0.40
2022-12-04T06:19:28.618Z,-0.40
2022-12-04T06:22:01.726Z,-0.30
2022-12-04T06:24:37.029Z,-0.40
2022-12-04T06:27:27.695Z,-0.40
2022-12-04T06:30:01.161Z,-0.40
2022-12-04T06:32:33.935Z,-0.40
2022-12-04T06:35:07.785Z,-0.40
2022-12-04T06:37:39.052Z,-0.40
2022-12-04T06:40:15.105Z,-0.40
2022-12-04T06:42:47.464Z,-0.40
2022-12-04T06:45:19.303Z,-0.40
2022-12-04T06:47:51.132Z,-0.50
2022-12-04T06:50:23.115Z,-0.50
2022-12-04T06:52:55.523Z,-0.50
2022-12-04T06:55:29.194Z,-0.50
2022-12-04T06:58:00.886Z,-0.50
2022-12-04T07:00:32.312Z,-0.60
2022-12-04T07:03:04.204Z,-0.60
2022-12-04T07:05:39.995Z,-0.60
2022-12-04T07:08:13.913Z,-0.60
2022-12-04T07:10:57.462Z,-0.60
2022-12-04T07:13:31.015Z,-0.60
2022-12-04T07:16:07.611Z,-0.70
2022-12-04T07:18:41.958Z,-0.70
2022-12-04T07:21:28.666Z,-0.70
2022-12-04T07:24:07.031Z,-0.70
2022-12-04T07:26:42.426Z,-0.70
2022-12-04T07:29:16.257Z,-0.80
2022-12-04T07:31:47.851Z,-0.80
2022-12-04T07:34:22.351Z,-0.80
2022-12-04T07:36:54.117Z,-0.80
2022-12-04T07:39:26.900Z,-0.80
2022-12-04T07:42:03.699Z,-0.90
2022-12-04T07:44:37.067Z,-0.90
2022-12-04T07:47:10.591Z,-0.90
2022-12-04T07:49:42.188Z,-0.90
2022-12-04T07:52:14.409Z,-0.90
2022-12-04T07:54:46.267Z,-1.00
2022-12-04T07:57:20.876Z,-1.00
2022-12-04T07:59:57.484Z,-1.00
2022-12-04T08:02:31.612Z,-1.00
2022-12-04T08:05:06.199Z,-1.00
2022-12-04T08:07:38.042Z,-1.00
2022-12-04T08:10:11.946Z,-1.00
2022-12-04T08:12:46.382Z,-1.00
2022-12-04T08:15:18.705Z,-1.00
2022-12-04T08:17:54.331Z,-1.00
2022-12-04T08:20:27.575Z,-1.10
2022-12-04T08:22:59.928Z,-1.10
2022-12-04T08:25:31.862Z,-1.10
2022-12-04T08:28:06.398Z,-1.10
2022-12-04T08:30:38.096Z,-1.20
2022-12-04T08:33:10.092Z,-1.20
2022-12-04T08:35:42.803Z,-1.20
2022-12-04T08:38:16.748Z,-1.20
2022-12-04T08:40:50.477Z,-1.30
2022-12-04T08:43:29.731Z,-1.30
2022-12-04T08:46:08.230Z,-1.40
2022-12-04T08:48:43.277Z,-1.40
